X  Chiuso Dati meteorologici dell'aviazione (METAR)     LIPX Verona-Villafranca Valerio Catullo Airport
Temperatura
0°C Temperatura
-1°C Punto di rugiada
93% Umidità



Vento
8 KM/H
5 MPH
2 M/S
4 KTS



350°
Nord
Condizioni attuali

Sereno Sereno
Pressione 1016.92 (hPa) - 30.03 (inHg)
Visibilità 4.3 (miglio) - 7 (km)
Aeroporto
Codice-Aeroporto LIPX

Posizione: Verona-Villafranca Valerio Catullo Airport
Distanza: 50 (km)

Metar:
LIPX 302150Z 35004KT 7000 NSC M00/M01 Q1017

Ore: 30-01-2023 22:50 CET